Terminal Aerodrome Forecast
Issued by NWS Melbourne, FL

Home | Current Version | Previous Version | Text Only | Print | Product List | Glossary On
Versions: 1 2 3 4 5 6 7 8 9 10 11 12
000
FTUS42 KMLB 012300 RRA
TAFDAB
TAF
KDAB 012342Z 0200/0224 VRB04KT P6SM FEW040 BKN250
     FM021400 10004KT P6SM FEW025
     FM021800 09008KT P6SM FEW040=

USA.gov is the U.S. government's official web portal to all federal, state and local government web resources and services.